sensor_id;sensor_type;location;lat;lon;timestamp;P1;durP1;ratioP1;P2;durP2;ratioP2
13163;SDS011;6647;53.688;10.746;2023-06-22T00:00:48;2.60;;;2.30;;
13163;SDS011;6647;53.688;10.746;2023-06-22T00:01:49;2.90;;;2.50;;
13163;SDS011;6647;53.688;10.746;2023-06-22T00:02:50;3.00;;;2.77;;
13163;SDS011;6647;53.688;10.746;2023-06-22T00:03:50;3.67;;;3.00;;
13163;SDS011;6647;53.688;10.746;2023-06-22T00:04:51;3.50;;;2.50;;
13163;SDS011;6647;53.688;10.746;2023-06-22T00:05:51;5.73;;;3.20;;
13163;SDS011;6647;53.688;10.746;2023-06-22T00:06:52;3.17;;;2.70;;
13163;SDS011;6647;53.688;10.746;2023-06-22T00:07:52;3.20;;;2.90;;
13163;SDS011;6647;53.688;10.746;2023-06-22T00:08:53;4.37;;;3.10;;
13163;SDS011;6647;53.688;10.746;2023-06-22T00:09:53;3.47;;;2.83;;
13163;SDS011;6647;53.688;10.746;2023-06-22T00:10:54;3.27;;;2.90;;
13163;SDS011;6647;53.688;10.746;2023-06-22T00:11:54;3.10;;;2.77;;
13163;SDS011;6647;53.688;10.746;2023-06-22T00:12:55;2.87;;;2.67;;
13163;SDS011;6647;53.688;10.746;2023-06-22T00:13:55;3.03;;;2.83;;
13163;SDS011;6647;53.688;10.746;2023-06-22T00:14:56;3.53;;;2.73;;
13163;SDS011;6647;53.688;10.746;2023-06-22T00:15:56;2.70;;;2.50;;
13163;SDS011;6647;53.688;10.746;2023-06-22T00:16:56;3.10;;;2.80;;
13163;SDS011;6647;53.688;10.746;2023-06-22T00:17:57;3.30;;;3.00;;
13163;SDS011;6647;53.688;10.746;2023-06-22T00:18:59;3.72;;;3.30;;
13163;SDS011;6647;53.688;10.746;2023-06-22T00:20:03;3.08;;;2.88;;
13163;SDS011;6647;53.688;10.746;2023-06-22T00:21:06;3.42;;;3.13;;
13163;SDS011;6647;53.688;10.746;2023-06-22T00:22:06;5.77;;;2.80;;
13163;SDS011;6647;53.688;10.746;2023-06-22T00:23:07;4.53;;;3.40;;
13163;SDS011;6647;53.688;10.746;2023-06-22T00:24:10;4.00;;;3.60;;
13163;SDS011;6647;53.688;10.746;2023-06-22T00:25:11;2.90;;;2.60;;
13163;SDS011;6647;53.688;10.746;2023-06-22T00:26:11;3.60;;;2.70;;
13163;SDS011;6647;53.688;10.746;2023-06-22T00:27:12;3.40;;;3.10;;
13163;SDS011;6647;53.688;10.746;2023-06-22T00:28:12;4.30;;;3.10;;
13163;SDS011;6647;53.688;10.746;2023-06-22T00:29:13;3.10;;;2.80;;
13163;SDS011;6647;53.688;10.746;2023-06-22T00:30:13;3.33;;;3.03;;
13163;SDS011;6647;53.688;10.746;2023-06-22T00:31:15;4.05;;;3.20;;
13163;SDS011;6647;53.688;10.746;2023-06-22T00:32:16;2.83;;;2.60;;
13163;SDS011;6647;53.688;10.746;2023-06-22T00:33:17;2.92;;;2.60;;
13163;SDS011;6647;53.688;10.746;2023-06-22T00:34:17;3.10;;;2.80;;
13163;SDS011;6647;53.688;10.746;2023-06-22T00:35:18;2.70;;;2.50;;
13163;SDS011;6647;53.688;10.746;2023-06-22T00:36:18;3.33;;;3.03;;
13163;SDS011;6647;53.688;10.746;2023-06-22T00:37:19;2.80;;;2.60;;
13163;SDS011;6647;53.688;10.746;2023-06-22T00:38:19;3.03;;;2.70;;
13163;SDS011;6647;53.688;10.746;2023-06-22T00:39:20;3.27;;;3.07;;
13163;SDS011;6647;53.688;10.746;2023-06-22T00:40:20;3.40;;;3.10;;
13163;SDS011;6647;53.688;10.746;2023-06-22T00:41:22;4.63;;;2.53;;
13163;SDS011;6647;53.688;10.746;2023-06-22T00:42:22;4.20;;;2.80;;
13163;SDS011;6647;53.688;10.746;2023-06-22T00:43:23;7.47;;;2.90;;
13163;SDS011;6647;53.688;10.746;2023-06-22T00:44:23;5.13;;;2.77;;
13163;SDS011;6647;53.688;10.746;2023-06-22T00:45:24;3.73;;;3.00;;
13163;SDS011;6647;53.688;10.746;2023-06-22T00:46:24;3.80;;;3.40;;
13163;SDS011;6647;53.688;10.746;2023-06-22T00:47:25;5.63;;;2.60;;
13163;SDS011;6647;53.688;10.746;2023-06-22T00:48:26;3.85;;;3.25;;
13163;SDS011;6647;53.688;10.746;2023-06-22T00:49:27;2.77;;;2.57;;
13163;SDS011;6647;53.688;10.746;2023-06-22T00:50:31;3.27;;;2.97;;
13163;SDS011;6647;53.688;10.746;2023-06-22T00:51:35;3.20;;;2.90;;
13163;SDS011;6647;53.688;10.746;2023-06-22T00:52:38;3.63;;;2.65;;
13163;SDS011;6647;53.688;10.746;2023-06-22T00:53:43;3.10;;;2.75;;
13163;SDS011;6647;53.688;10.746;2023-06-22T00:54:43;4.20;;;3.17;;
13163;SDS011;6647;53.688;10.746;2023-06-22T00:55:45;2.97;;;2.78;;
13163;SDS011;6647;53.688;10.746;2023-06-22T00:56:54;4.32;;;3.90;;
13163;SDS011;6647;53.688;10.746;2023-06-22T00:57:56;2.95;;;2.72;;
13163;SDS011;6647;53.688;10.746;2023-06-22T00:58:57;3.50;;;2.87;;
13163;SDS011;6647;53.688;10.746;2023-06-22T00:59:59;3.10;;;2.80;;
13163;SDS011;6647;53.688;10.746;2023-06-22T01:01:00;5.87;;;3.50;;
13163;SDS011;6647;53.688;10.746;2023-06-22T01:02:02;3.15;;;2.95;;
13163;SDS011;6647;53.688;10.746;2023-06-22T01:03:03;6.50;;;3.70;;
13163;SDS011;6647;53.688;10.746;2023-06-22T01:04:04;6.37;;;3.30;;
13163;SDS011;6647;53.688;10.746;2023-06-22T01:05:05;3.88;;;3.00;;
13163;SDS011;6647;53.688;10.746;2023-06-22T01:06:10;3.55;;;3.25;;
13163;SDS011;6647;53.688;10.746;2023-06-22T01:08:46;3.97;;;3.58;;
13163;SDS011;6647;53.688;10.746;2023-06-22T01:10:09;3.13;;;2.83;;
13163;SDS011;6647;53.688;10.746;2023-06-22T01:11:37;3.45;;;3.15;;
13163;SDS011;6647;53.688;10.746;2023-06-22T01:12:48;2.88;;;2.65;;
13163;SDS011;6647;53.688;10.746;2023-06-22T01:14:00;5.97;;;3.60;;
13163;SDS011;6647;53.688;10.746;2023-06-22T01:15:08;7.72;;;3.75;;
13163;SDS011;6647;53.688;10.746;2023-06-22T01:16:13;6.43;;;3.65;;
13163;SDS011;6647;53.688;10.746;2023-06-22T01:17:15;7.25;;;3.10;;
13163;SDS011;6647;53.688;10.746;2023-06-22T01:18:17;4.45;;;3.47;;
13163;SDS011;6647;53.688;10.746;2023-06-22T01:19:35;5.22;;;3.10;;
13163;SDS011;6647;53.688;10.746;2023-06-22T01:20:41;3.72;;;3.40;;
13163;SDS011;6647;53.688;10.746;2023-06-22T01:21:42;3.43;;;3.13;;
13163;SDS011;6647;53.688;10.746;2023-06-22T01:24:14;3.47;;;3.17;;
13163;SDS011;6647;53.688;10.746;2023-06-22T01:25:19;3.65;;;3.30;;
13163;SDS011;6647;53.688;10.746;2023-06-22T01:27:33;4.38;;;3.40;;
13163;SDS011;6647;53.688;10.746;2023-06-22T01:30:01;4.45;;;3.25;;
13163;SDS011;6647;53.688;10.746;2023-06-22T01:31:04;3.53;;;2.85;;
13163;SDS011;6647;53.688;10.746;2023-06-22T01:32:06;3.30;;;3.05;;
13163;SDS011;6647;53.688;10.746;2023-06-22T01:33:08;3.42;;;2.90;;
13163;SDS011;6647;53.688;10.746;2023-06-22T01:34:11;4.13;;;3.25;;
13163;SDS011;6647;53.688;10.746;2023-06-22T01:35:13;3.97;;;2.80;;
13163;SDS011;6647;53.688;10.746;2023-06-22T01:36:15;4.68;;;3.20;;
13163;SDS011;6647;53.688;10.746;2023-06-22T01:37:17;3.75;;;3.35;;
13163;SDS011;6647;53.688;10.746;2023-06-22T01:38:18;4.53;;;2.97;;
13163;SDS011;6647;53.688;10.746;2023-06-22T01:39:19;5.20;;;3.80;;
13163;SDS011;6647;53.688;10.746;2023-06-22T01:40:19;3.33;;;3.03;;
13163;SDS011;6647;53.688;10.746;2023-06-22T01:41:20;3.97;;;3.57;;
13163;SDS011;6647;53.688;10.746;2023-06-22T01:42:23;5.17;;;3.40;;
13163;SDS011;6647;53.688;10.746;2023-06-22T01:43:25;4.90;;;3.35;;
13163;SDS011;6647;53.688;10.746;2023-06-22T01:44:26;3.35;;;3.05;;
13163;SDS011;6647;53.688;10.746;2023-06-22T01:45:27;3.92;;;3.53;;
13163;SDS011;6647;53.688;10.746;2023-06-22T01:46:28;3.73;;;3.40;;
13163;SDS011;6647;53.688;10.746;2023-06-22T01:47:29;3.93;;;3.50;;
13163;SDS011;6647;53.688;10.746;2023-06-22T01:48:30;4.50;;;3.83;;
13163;SDS011;6647;53.688;10.746;2023-06-22T01:49:30;4.33;;;3.77;;
13163;SDS011;6647;53.688;10.746;2023-06-22T01:50:31;3.40;;;3.10;;
13163;SDS011;6647;53.688;10.746;2023-06-22T01:51:31;3.57;;;3.27;;
13163;SDS011;6647;53.688;10.746;2023-06-22T01:52:32;3.80;;;3.40;;
13163;SDS011;6647;53.688;10.746;2023-06-22T01:53:34;5.65;;;3.78;;
13163;SDS011;6647;53.688;10.746;2023-06-22T01:54:34;4.70;;;3.60;;
13163;SDS011;6647;53.688;10.746;2023-06-22T01:55:35;3.80;;;3.50;;
13163;SDS011;6647;53.688;10.746;2023-06-22T01:56:35;4.47;;;3.40;;
13163;SDS011;6647;53.688;10.746;2023-06-22T01:57:36;3.63;;;3.33;;
13163;SDS011;6647;53.688;10.746;2023-06-22T02:00:04;4.03;;;3.63;;
13163;SDS011;6647;53.688;10.746;2023-06-22T02:01:11;4.20;;;3.80;;
13163;SDS011;6647;53.688;10.746;2023-06-22T02:02:13;4.00;;;3.70;;
13163;SDS011;6647;53.688;10.746;2023-06-22T02:03:18;4.15;;;3.75;;
13163;SDS011;6647;53.688;10.746;2023-06-22T02:04:21;5.00;;;3.63;;
13163;SDS011;6647;53.688;10.746;2023-06-22T02:05:29;5.07;;;4.68;;
13163;SDS011;6647;53.688;10.746;2023-06-22T02:06:36;4.68;;;4.00;;
13163;SDS011;6647;53.688;10.746;2023-06-22T02:07:49;3.80;;;3.40;;
13163;SDS011;6647;53.688;10.746;2023-06-22T02:09:08;4.20;;;3.80;;
13163;SDS011;6647;53.688;10.746;2023-06-22T02:10:11;4.93;;;4.07;;
13163;SDS011;6647;53.688;10.746;2023-06-22T02:11:14;4.57;;;4.18;;
13163;SDS011;6647;53.688;10.746;2023-06-22T02:12:17;3.80;;;3.50;;
13163;SDS011;6647;53.688;10.746;2023-06-22T02:13:18;5.53;;;4.10;;
13163;SDS011;6647;53.688;10.746;2023-06-22T02:14:19;5.27;;;4.20;;
13163;SDS011;6647;53.688;10.746;2023-06-22T02:15:20;5.50;;;4.67;;
13163;SDS011;6647;53.688;10.746;2023-06-22T02:16:20;7.20;;;4.60;;
13163;SDS011;6647;53.688;10.746;2023-06-22T02:17:21;5.90;;;4.30;;
13163;SDS011;6647;53.688;10.746;2023-06-22T02:18:22;5.67;;;3.80;;
13163;SDS011;6647;53.688;10.746;2023-06-22T02:19:22;5.13;;;4.30;;
13163;SDS011;6647;53.688;10.746;2023-06-22T02:20:24;4.28;;;3.70;;
13163;SDS011;6647;53.688;10.746;2023-06-22T02:21:24;8.00;;;4.30;;
13163;SDS011;6647;53.688;10.746;2023-06-22T02:22:25;4.67;;;3.73;;
13163;SDS011;6647;53.688;10.746;2023-06-22T02:23:25;4.80;;;3.67;;
13163;SDS011;6647;53.688;10.746;2023-06-22T02:24:26;4.03;;;3.63;;
13163;SDS011;6647;53.688;10.746;2023-06-22T02:25:27;5.97;;;3.87;;
13163;SDS011;6647;53.688;10.746;2023-06-22T02:26:27;9.33;;;3.97;;
13163;SDS011;6647;53.688;10.746;2023-06-22T02:27:28;8.18;;;4.32;;
13163;SDS011;6647;53.688;10.746;2023-06-22T02:28:29;6.50;;;3.97;;
13163;SDS011;6647;53.688;10.746;2023-06-22T02:29:29;4.03;;;3.53;;
13163;SDS011;6647;53.688;10.746;2023-06-22T02:30:30;4.27;;;3.80;;
13163;SDS011;6647;53.688;10.746;2023-06-22T02:31:32;5.18;;;3.85;;
13163;SDS011;6647;53.688;10.746;2023-06-22T02:32:32;6.10;;;4.23;;
13163;SDS011;6647;53.688;10.746;2023-06-22T02:33:34;4.65;;;3.90;;
13163;SDS011;6647;53.688;10.746;2023-06-22T02:34:35;4.47;;;3.53;;
13163;SDS011;6647;53.688;10.746;2023-06-22T02:35:37;5.20;;;3.90;;
13163;SDS011;6647;53.688;10.746;2023-06-22T02:36:37;4.73;;;3.93;;
13163;SDS011;6647;53.688;10.746;2023-06-22T02:37:37;6.60;;;4.10;;
13163;SDS011;6647;53.688;10.746;2023-06-22T02:38:40;4.27;;;3.87;;
13163;SDS011;6647;53.688;10.746;2023-06-22T02:39:48;5.40;;;4.22;;
13163;SDS011;6647;53.688;10.746;2023-06-22T02:40:48;7.10;;;3.90;;
13163;SDS011;6647;53.688;10.746;2023-06-22T02:41:49;5.80;;;4.40;;
13163;SDS011;6647;53.688;10.746;2023-06-22T02:42:50;5.05;;;4.55;;
13163;SDS011;6647;53.688;10.746;2023-06-22T02:43:50;6.20;;;4.17;;
13163;SDS011;6647;53.688;10.746;2023-06-22T02:44:51;8.90;;;3.73;;
13163;SDS011;6647;53.688;10.746;2023-06-22T02:45:51;4.50;;;3.87;;
13163;SDS011;6647;53.688;10.746;2023-06-22T02:46:53;8.23;;;4.30;;
13163;SDS011;6647;53.688;10.746;2023-06-22T02:47:55;3.72;;;3.40;;
13163;SDS011;6647;53.688;10.746;2023-06-22T02:48:55;5.50;;;4.15;;
13163;SDS011;6647;53.688;10.746;2023-06-22T02:49:56;5.93;;;3.80;;
13163;SDS011;6647;53.688;10.746;2023-06-22T02:50:56;4.93;;;3.43;;
13163;SDS011;6647;53.688;10.746;2023-06-22T02:51:57;5.00;;;3.60;;
13163;SDS011;6647;53.688;10.746;2023-06-22T02:52:57;3.97;;;3.43;;
13163;SDS011;6647;53.688;10.746;2023-06-22T02:53:58;5.53;;;4.03;;
13163;SDS011;6647;53.688;10.746;2023-06-22T02:54:58;3.77;;;3.37;;
13163;SDS011;6647;53.688;10.746;2023-06-22T02:55:59;4.60;;;3.90;;
13163;SDS011;6647;53.688;10.746;2023-06-22T02:57:02;4.20;;;3.90;;
13163;SDS011;6647;53.688;10.746;2023-06-22T02:58:03;4.80;;;3.37;;
13163;SDS011;6647;53.688;10.746;2023-06-22T02:59:05;5.72;;;3.50;;
13163;SDS011;6647;53.688;10.746;2023-06-22T03:00:05;3.57;;;3.27;;
13163;SDS011;6647;53.688;10.746;2023-06-22T03:01:16;5.80;;;3.90;;
13163;SDS011;6647;53.688;10.746;2023-06-22T03:02:17;3.77;;;3.47;;
13163;SDS011;6647;53.688;10.746;2023-06-22T03:03:19;5.47;;;3.90;;
13163;SDS011;6647;53.688;10.746;2023-06-22T03:04:19;5.32;;;3.85;;
13163;SDS011;6647;53.688;10.746;2023-06-22T03:05:20;5.23;;;3.87;;
13163;SDS011;6647;53.688;10.746;2023-06-22T03:06:21;3.93;;;3.20;;
13163;SDS011;6647;53.688;10.746;2023-06-22T03:07:23;4.75;;;3.92;;
13163;SDS011;6647;53.688;10.746;2023-06-22T03:08:24;3.50;;;3.13;;
13163;SDS011;6647;53.688;10.746;2023-06-22T03:09:25;5.30;;;3.80;;
13163;SDS011;6647;53.688;10.746;2023-06-22T03:10:25;4.67;;;3.77;;
13163;SDS011;6647;53.688;10.746;2023-06-22T03:11:26;6.63;;;3.60;;
13163;SDS011;6647;53.688;10.746;2023-06-22T03:12:27;5.53;;;4.37;;
13163;SDS011;6647;53.688;10.746;2023-06-22T03:13:27;4.10;;;3.80;;
13163;SDS011;6647;53.688;10.746;2023-06-22T03:14:27;5.00;;;3.30;;
13163;SDS011;6647;53.688;10.746;2023-06-22T03:15:28;11.47;;;3.97;;
13163;SDS011;6647;53.688;10.746;2023-06-22T03:16:29;4.78;;;3.75;;
13163;SDS011;6647;53.688;10.746;2023-06-22T03:17:30;4.00;;;3.50;;
13163;SDS011;6647;53.688;10.746;2023-06-22T03:18:30;4.03;;;3.50;;
13163;SDS011;6647;53.688;10.746;2023-06-22T03:19:30;3.80;;;3.50;;
13163;SDS011;6647;53.688;10.746;2023-06-22T03:20:35;6.28;;;3.65;;
13163;SDS011;6647;53.688;10.746;2023-06-22T03:21:37;5.47;;;4.17;;
13163;SDS011;6647;53.688;10.746;2023-06-22T03:22:39;3.85;;;3.47;;
13163;SDS011;6647;53.688;10.746;2023-06-22T03:23:41;5.63;;;3.58;;
13163;SDS011;6647;53.688;10.746;2023-06-22T03:24:42;4.47;;;3.55;;
13163;SDS011;6647;53.688;10.746;2023-06-22T03:25:43;3.40;;;3.10;;
13163;SDS011;6647;53.688;10.746;2023-06-22T03:26:50;7.68;;;3.95;;
13163;SDS011;6647;53.688;10.746;2023-06-22T03:27:53;6.07;;;4.20;;
13163;SDS011;6647;53.688;10.746;2023-06-22T03:28:53;4.17;;;3.77;;
13163;SDS011;6647;53.688;10.746;2023-06-22T03:29:54;3.97;;;3.60;;
13163;SDS011;6647;53.688;10.746;2023-06-22T03:30:57;6.63;;;3.75;;
13163;SDS011;6647;53.688;10.746;2023-06-22T03:31:57;7.10;;;4.05;;
13163;SDS011;6647;53.688;10.746;2023-06-22T03:32:58;4.53;;;4.13;;
13163;SDS011;6647;53.688;10.746;2023-06-22T03:33:59;4.67;;;3.87;;
13163;SDS011;6647;53.688;10.746;2023-06-22T03:35:00;7.75;;;3.90;;
13163;SDS011;6647;53.688;10.746;2023-06-22T03:36:00;3.83;;;3.50;;
13163;SDS011;6647;53.688;10.746;2023-06-22T03:37:01;6.07;;;3.43;;
13163;SDS011;6647;53.688;10.746;2023-06-22T03:38:02;3.60;;;3.30;;
13163;SDS011;6647;53.688;10.746;2023-06-22T03:39:02;5.37;;;3.77;;
13163;SDS011;6647;53.688;10.746;2023-06-22T03:40:03;5.65;;;4.38;;
13163;SDS011;6647;53.688;10.746;2023-06-22T03:41:05;6.57;;;4.60;;
13163;SDS011;6647;53.688;10.746;2023-06-22T03:42:05;7.33;;;4.00;;
13163;SDS011;6647;53.688;10.746;2023-06-22T03:43:06;5.33;;;4.20;;
13163;SDS011;6647;53.688;10.746;2023-06-22T03:44:07;4.97;;;4.00;;
13163;SDS011;6647;53.688;10.746;2023-06-22T03:45:10;4.50;;;4.10;;
13163;SDS011;6647;53.688;10.746;2023-06-22T03:46:11;4.93;;;3.70;;
13163;SDS011;6647;53.688;10.746;2023-06-22T03:47:12;4.30;;;3.80;;
13163;SDS011;6647;53.688;10.746;2023-06-22T03:48:12;4.47;;;3.80;;
13163;SDS011;6647;53.688;10.746;2023-06-22T03:49:13;8.20;;;3.90;;
13163;SDS011;6647;53.688;10.746;2023-06-22T03:50:14;6.60;;;3.83;;
13163;SDS011;6647;53.688;10.746;2023-06-22T03:51:14;4.50;;;3.23;;
13163;SDS011;6647;53.688;10.746;2023-06-22T03:52:15;9.70;;;3.83;;
13163;SDS011;6647;53.688;10.746;2023-06-22T03:53:16;4.03;;;3.63;;
13163;SDS011;6647;53.688;10.746;2023-06-22T03:54:16;5.97;;;4.27;;
13163;SDS011;6647;53.688;10.746;2023-06-22T03:55:16;5.13;;;3.43;;
13163;SDS011;6647;53.688;10.746;2023-06-22T03:56:18;4.35;;;3.83;;
13163;SDS011;6647;53.688;10.746;2023-06-22T03:57:20;4.80;;;4.00;;
13163;SDS011;6647;53.688;10.746;2023-06-22T03:58:21;4.23;;;3.83;;
13163;SDS011;6647;53.688;10.746;2023-06-22T03:59:21;6.03;;;3.87;;
13163;SDS011;6647;53.688;10.746;2023-06-22T04:00:25;3.33;;;3.13;;
13163;SDS011;6647;53.688;10.746;2023-06-22T04:01:25;8.52;;;3.90;;
13163;SDS011;6647;53.688;10.746;2023-06-22T04:02:27;5.60;;;3.75;;
13163;SDS011;6647;53.688;10.746;2023-06-22T04:03:28;4.30;;;3.90;;
13163;SDS011;6647;53.688;10.746;2023-06-22T04:04:28;4.03;;;3.73;;
13163;SDS011;6647;53.688;10.746;2023-06-22T04:05:29;6.20;;;3.87;;
13163;SDS011;6647;53.688;10.746;2023-06-22T04:06:30;7.25;;;4.28;;
13163;SDS011;6647;53.688;10.746;2023-06-22T04:07:30;4.47;;;3.50;;
13163;SDS011;6647;53.688;10.746;2023-06-22T04:08:31;5.13;;;4.33;;
13163;SDS011;6647;53.688;10.746;2023-06-22T04:09:32;4.47;;;3.35;;
13163;SDS011;6647;53.688;10.746;2023-06-22T04:10:32;4.67;;;4.13;;
13163;SDS011;6647;53.688;10.746;2023-06-22T04:11:33;7.90;;;4.37;;
13163;SDS011;6647;53.688;10.746;2023-06-22T04:12:34;4.60;;;3.50;;
13163;SDS011;6647;53.688;10.746;2023-06-22T04:13:34;5.20;;;4.70;;
13163;SDS011;6647;53.688;10.746;2023-06-22T04:14:34;3.93;;;3.53;;
13163;SDS011;6647;53.688;10.746;2023-06-22T04:15:35;5.03;;;3.73;;
13163;SDS011;6647;53.688;10.746;2023-06-22T04:16:35;6.90;;;4.53;;
13163;SDS011;6647;53.688;10.746;2023-06-22T04:17:36;4.50;;;3.87;;
13163;SDS011;6647;53.688;10.746;2023-06-22T04:18:36;6.90;;;4.23;;
13163;SDS011;6647;53.688;10.746;2023-06-22T04:19:37;7.33;;;4.67;;
13163;SDS011;6647;53.688;10.746;2023-06-22T04:20:37;5.17;;;4.30;;
13163;SDS011;6647;53.688;10.746;2023-06-22T04:21:39;5.32;;;4.10;;
13163;SDS011;6647;53.688;10.746;2023-06-22T04:22:40;4.32;;;3.95;;
13163;SDS011;6647;53.688;10.746;2023-06-22T04:23:41;6.03;;;4.03;;
13163;SDS011;6647;53.688;10.746;2023-06-22T04:24:41;8.80;;;4.73;;
13163;SDS011;6647;53.688;10.746;2023-06-22T04:25:42;6.23;;;4.57;;
13163;SDS011;6647;53.688;10.746;2023-06-22T04:26:42;6.03;;;4.47;;
13163;SDS011;6647;53.688;10.746;2023-06-22T04:27:45;5.50;;;4.75;;
13163;SDS011;6647;53.688;10.746;2023-06-22T04:28:47;7.72;;;4.32;;
13163;SDS011;6647;53.688;10.746;2023-06-22T04:29:51;6.88;;;4.30;;
13163;SDS011;6647;53.688;10.746;2023-06-22T04:30:52;8.07;;;4.93;;
13163;SDS011;6647;53.688;10.746;2023-06-22T04:31:53;5.73;;;3.90;;
13163;SDS011;6647;53.688;10.746;2023-06-22T04:32:54;9.73;;;4.45;;
13163;SDS011;6647;53.688;10.746;2023-06-22T04:33:59;4.05;;;3.53;;
13163;SDS011;6647;53.688;10.746;2023-06-22T04:35:06;7.88;;;3.95;;
13163;SDS011;6647;53.688;10.746;2023-06-22T04:36:07;6.00;;;4.40;;
13163;SDS011;6647;53.688;10.746;2023-06-22T04:37:07;10.30;;;4.40;;
13163;SDS011;6647;53.688;10.746;2023-06-22T04:38:07;8.17;;;4.20;;
13163;SDS011;6647;53.688;10.746;2023-06-22T04:39:09;3.70;;;3.40;;
13163;SDS011;6647;53.688;10.746;2023-06-22T04:40:10;6.88;;;4.15;;
13163;SDS011;6647;53.688;10.746;2023-06-22T04:41:14;6.80;;;3.63;;
13163;SDS011;6647;53.688;10.746;2023-06-22T04:42:25;9.25;;;3.85;;
13163;SDS011;6647;53.688;10.746;2023-06-22T04:43:26;7.88;;;3.70;;
13163;SDS011;6647;53.688;10.746;2023-06-22T04:44:30;4.13;;;3.72;;
13163;SDS011;6647;53.688;10.746;2023-06-22T04:45:30;5.73;;;3.80;;
13163;SDS011;6647;53.688;10.746;2023-06-22T04:46:31;7.30;;;3.83;;
13163;SDS011;6647;53.688;10.746;2023-06-22T04:47:31;4.70;;;3.30;;
13163;SDS011;6647;53.688;10.746;2023-06-22T04:48:32;6.77;;;3.97;;
13163;SDS011;6647;53.688;10.746;2023-06-22T04:49:33;6.53;;;4.20;;
13163;SDS011;6647;53.688;10.746;2023-06-22T04:50:36;4.78;;;3.70;;
13163;SDS011;6647;53.688;10.746;2023-06-22T04:51:39;8.07;;;3.83;;
13163;SDS011;6647;53.688;10.746;2023-06-22T04:52:40;4.35;;;3.65;;
13163;SDS011;6647;53.688;10.746;2023-06-22T04:53:41;6.83;;;3.97;;
13163;SDS011;6647;53.688;10.746;2023-06-22T04:54:42;4.38;;;3.22;;
13163;SDS011;6647;53.688;10.746;2023-06-22T04:55:47;11.13;;;4.05;;
13163;SDS011;6647;53.688;10.746;2023-06-22T04:56:49;7.95;;;4.10;;
13163;SDS011;6647;53.688;10.746;2023-06-22T04:57:56;6.18;;;3.70;;
13163;SDS011;6647;53.688;10.746;2023-06-22T04:58:56;7.43;;;4.23;;
13163;SDS011;6647;53.688;10.746;2023-06-22T04:59:57;10.90;;;4.10;;
13163;SDS011;6647;53.688;10.746;2023-06-22T05:01:09;9.23;;;3.80;;
13163;SDS011;6647;53.688;10.746;2023-06-22T05:02:11;5.22;;;4.05;;
13163;SDS011;6647;53.688;10.746;2023-06-22T05:03:12;4.30;;;3.87;;
13163;SDS011;6647;53.688;10.746;2023-06-22T05:04:13;11.17;;;4.37;;
13163;SDS011;6647;53.688;10.746;2023-06-22T05:05:15;9.45;;;3.90;;
13163;SDS011;6647;53.688;10.746;2023-06-22T05:06:17;5.10;;;3.65;;
13163;SDS011;6647;53.688;10.746;2023-06-22T05:07:18;5.87;;;3.80;;
13163;SDS011;6647;53.688;10.746;2023-06-22T05:08:18;5.83;;;3.87;;
13163;SDS011;6647;53.688;10.746;2023-06-22T05:09:18;7.97;;;5.07;;
13163;SDS011;6647;53.688;10.746;2023-06-22T05:10:19;10.50;;;4.23;;
13163;SDS011;6647;53.688;10.746;2023-06-22T05:11:19;5.07;;;4.20;;
13163;SDS011;6647;53.688;10.746;2023-06-22T05:12:21;5.22;;;4.60;;
13163;SDS011;6647;53.688;10.746;2023-06-22T05:13:21;6.10;;;4.30;;
13163;SDS011;6647;53.688;10.746;2023-06-22T05:14:21;4.70;;;4.23;;
13163;SDS011;6647;53.688;10.746;2023-06-22T05:15:22;10.50;;;4.60;;
13163;SDS011;6647;53.688;10.746;2023-06-22T05:16:27;9.80;;;4.70;;
13163;SDS011;6647;53.688;10.746;2023-06-22T05:17:27;6.93;;;4.33;;
13163;SDS011;6647;53.688;10.746;2023-06-22T05:18:28;5.47;;;3.87;;
13163;SDS011;6647;53.688;10.746;2023-06-22T05:19:31;5.53;;;3.95;;
13163;SDS011;6647;53.688;10.746;2023-06-22T05:20:33;4.45;;;4.00;;
13163;SDS011;6647;53.688;10.746;2023-06-22T05:21:36;5.07;;;3.90;;
13163;SDS011;6647;53.688;10.746;2023-06-22T05:22:37;6.57;;;4.20;;
13163;SDS011;6647;53.688;10.746;2023-06-22T05:23:40;9.95;;;4.45;;
13163;SDS011;6647;53.688;10.746;2023-06-22T05:24:41;4.30;;;3.60;;
13163;SDS011;6647;53.688;10.746;2023-06-22T05:25:41;8.13;;;3.90;;
13163;SDS011;6647;53.688;10.746;2023-06-22T05:26:42;5.50;;;4.53;;
13163;SDS011;6647;53.688;10.746;2023-06-22T05:27:42;8.10;;;4.23;;
13163;SDS011;6647;53.688;10.746;2023-06-22T05:28:44;4.90;;;4.40;;
13163;SDS011;6647;53.688;10.746;2023-06-22T05:29:47;7.10;;;3.80;;
13163;SDS011;6647;53.688;10.746;2023-06-22T05:30:48;4.47;;;4.07;;
13163;SDS011;6647;53.688;10.746;2023-06-22T05:31:49;4.83;;;4.37;;
13163;SDS011;6647;53.688;10.746;2023-06-22T05:32:49;4.87;;;4.30;;
13163;SDS011;6647;53.688;10.746;2023-06-22T05:33:51;5.40;;;4.23;;
13163;SDS011;6647;53.688;10.746;2023-06-22T05:34:52;11.68;;;4.70;;
13163;SDS011;6647;53.688;10.746;2023-06-22T05:35:52;4.60;;;4.13;;
13163;SDS011;6647;53.688;10.746;2023-06-22T05:36:52;12.30;;;5.23;;
13163;SDS011;6647;53.688;10.746;2023-06-22T05:37:53;6.40;;;4.67;;
13163;SDS011;6647;53.688;10.746;2023-06-22T05:38:53;5.77;;;4.73;;
13163;SDS011;6647;53.688;10.746;2023-06-22T05:39:57;4.97;;;4.35;;
13163;SDS011;6647;53.688;10.746;2023-06-22T05:40:57;10.90;;;4.63;;
13163;SDS011;6647;53.688;10.746;2023-06-22T05:41:57;6.90;;;4.97;;
13163;SDS011;6647;53.688;10.746;2023-06-22T05:42:58;5.70;;;5.20;;
13163;SDS011;6647;53.688;10.746;2023-06-22T05:44:00;5.20;;;4.47;;
13163;SDS011;6647;53.688;10.746;2023-06-22T05:45:01;14.43;;;4.37;;
13163;SDS011;6647;53.688;10.746;2023-06-22T05:46:01;7.27;;;4.20;;
13163;SDS011;6647;53.688;10.746;2023-06-22T05:47:04;6.25;;;4.35;;
13163;SDS011;6647;53.688;10.746;2023-06-22T05:48:05;4.63;;;4.20;;
13163;SDS011;6647;53.688;10.746;2023-06-22T05:49:06;8.10;;;4.53;;
13163;SDS011;6647;53.688;10.746;2023-06-22T05:50:07;8.73;;;5.00;;
13163;SDS011;6647;53.688;10.746;2023-06-22T05:51:08;10.52;;;5.07;;
13163;SDS011;6647;53.688;10.746;2023-06-22T05:52:09;7.37;;;5.47;;
13163;SDS011;6647;53.688;10.746;2023-06-22T05:53:09;5.60;;;4.20;;
13163;SDS011;6647;53.688;10.746;2023-06-22T05:54:10;6.37;;;4.70;;
13163;SDS011;6647;53.688;10.746;2023-06-22T05:55:10;11.90;;;5.03;;
13163;SDS011;6647;53.688;10.746;2023-06-22T05:56:10;6.50;;;4.40;;
13163;SDS011;6647;53.688;10.746;2023-06-22T05:57:11;8.10;;;4.23;;
13163;SDS011;6647;53.688;10.746;2023-06-22T05:58:11;4.90;;;3.70;;
13163;SDS011;6647;53.688;10.746;2023-06-22T05:59:13;9.02;;;5.00;;
13163;SDS011;6647;53.688;10.746;2023-06-22T06:00:13;4.87;;;4.40;;
13163;SDS011;6647;53.688;10.746;2023-06-22T06:01:15;6.47;;;5.13;;
13163;SDS011;6647;53.688;10.746;2023-06-22T06:02:15;6.40;;;4.80;;
13163;SDS011;6647;53.688;10.746;2023-06-22T06:03:16;8.90;;;4.73;;
13163;SDS011;6647;53.688;10.746;2023-06-22T06:04:20;5.33;;;4.03;;
13163;SDS011;6647;53.688;10.746;2023-06-22T06:05:20;5.57;;;4.68;;
13163;SDS011;6647;53.688;10.746;2023-06-22T06:06:20;6.60;;;5.00;;
13163;SDS011;6647;53.688;10.746;2023-06-22T06:07:24;8.57;;;4.13;;
13163;SDS011;6647;53.688;10.746;2023-06-22T06:08:24;3.90;;;3.53;;
13163;SDS011;6647;53.688;10.746;2023-06-22T06:09:25;5.70;;;4.60;;
13163;SDS011;6647;53.688;10.746;2023-06-22T06:10:25;4.87;;;4.33;;
13163;SDS011;6647;53.688;10.746;2023-06-22T06:11:25;5.53;;;5.00;;
13163;SDS011;6647;53.688;10.746;2023-06-22T06:12:26;7.30;;;4.87;;
13163;SDS011;6647;53.688;10.746;2023-06-22T06:13:26;5.70;;;4.63;;
13163;SDS011;6647;53.688;10.746;2023-06-22T06:14:27;7.00;;;4.77;;
13163;SDS011;6647;53.688;10.746;2023-06-22T06:15:27;5.83;;;4.67;;
13163;SDS011;6647;53.688;10.746;2023-06-22T06:16:28;6.57;;;4.50;;
13163;SDS011;6647;53.688;10.746;2023-06-22T06:17:28;9.67;;;4.10;;
13163;SDS011;6647;53.688;10.746;2023-06-22T06:18:29;5.80;;;4.27;;
13163;SDS011;6647;53.688;10.746;2023-06-22T06:19:29;5.67;;;4.83;;